createdAt,value
2022-09-04T00:01:38.788Z,16.33
2022-09-04T00:04:20.914Z,18.42
2022-09-04T00:06:58.032Z,19.88
2022-09-04T00:09:34.247Z,20.05
2022-09-04T00:12:08.861Z,16.77
2022-09-04T00:14:44.561Z,15.85
2022-09-04T00:17:19.021Z,18.25
2022-09-04T00:19:56.415Z,15.38
2022-09-04T00:22:33.900Z,16.10
2022-09-04T00:25:10.573Z,15.65
2022-09-04T00:27:45.419Z,16.17
2022-09-04T00:30:20.494Z,11.73
2022-09-04T00:32:56.098Z,20.00
2022-09-04T00:35:31.588Z,18.90
2022-09-04T00:38:04.852Z,15.60
2022-09-04T00:40:35.893Z,13.20
2022-09-04T00:43:48.654Z,15.57
2022-09-04T00:46:42.647Z,18.92
2022-09-04T00:49:24.443Z,15.55
2022-09-04T00:52:03.667Z,17.63
2022-09-04T00:54:51.725Z,16.80
2022-09-04T00:58:01.542Z,19.90
2022-09-04T01:00:30.927Z,19.40
2022-09-04T01:03:32.083Z,15.90
2022-09-04T01:06:13.094Z,15.77
2022-09-04T01:08:56.564Z,17.92
2022-09-04T01:14:13.337Z,15.32
2022-09-04T01:16:47.757Z,14.63
2022-09-04T01:19:31.367Z,17.55
2022-09-04T01:22:14.513Z,16.95
2022-09-04T01:25:05.898Z,15.35
2022-09-04T01:27:43.491Z,14.23
2022-09-04T01:30:14.798Z,13.68
2022-09-04T01:32:52.509Z,14.00
2022-09-04T01:35:32.061Z,16.58
2022-09-04T01:38:10.666Z,15.00
2022-09-04T01:40:45.579Z,23.02
2022-09-04T01:43:18.712Z,16.20
2022-09-04T01:46:06.849Z,14.27
2022-09-04T01:48:43.494Z,21.80
2022-09-04T01:51:21.983Z,14.50
2022-09-04T01:54:00.558Z,16.73
2022-09-04T01:56:38.225Z,18.77
2022-09-04T01:59:12.963Z,18.80
2022-09-04T02:01:51.027Z,14.82
2022-09-04T02:04:27.716Z,15.02
2022-09-04T02:07:11.438Z,14.88
2022-09-04T02:09:50.130Z,14.85
2022-09-04T02:12:36.128Z,14.43
2022-09-04T02:15:13.997Z,13.68
2022-09-04T02:17:49.083Z,12.75
2022-09-04T02:20:26.294Z,13.18
2022-09-04T02:23:11.932Z,12.20
2022-09-04T02:25:49.683Z,18.58
2022-09-04T02:28:30.910Z,18.80
2022-09-04T02:31:06.983Z,17.85
2022-09-04T02:33:41.137Z,14.20
2022-09-04T02:36:16.846Z,13.50
2022-09-04T02:38:57.256Z,18.63
2022-09-04T02:41:38.977Z,14.10
2022-09-04T02:44:28.775Z,15.60
2022-09-04T02:47:12.942Z,15.80
2022-09-04T02:49:52.700Z,14.18
2022-09-04T02:52:37.444Z,17.50
2022-09-04T02:55:18.616Z,19.30
2022-09-04T02:57:58.944Z,15.30
2022-09-04T03:00:40.173Z,13.38
2022-09-04T03:03:14.303Z,20.77
2022-09-04T03:05:48.154Z,16.10
2022-09-04T03:08:20.401Z,13.75
2022-09-04T03:10:56.493Z,17.75
2022-09-04T03:13:32.023Z,15.95
2022-09-04T03:16:11.423Z,15.88
2022-09-04T03:19:03.106Z,21.52
2022-09-04T03:21:37.310Z,13.55
2022-09-04T03:24:12.380Z,17.13
2022-09-04T03:26:43.370Z,16.45
2022-09-04T03:29:24.819Z,16.75
2022-09-04T03:32:15.551Z,14.35
2022-09-04T03:34:52.459Z,15.77
2022-09-04T03:37:45.698Z,21.38
2022-09-04T03:43:17.577Z,14.93
2022-09-04T03:45:55.416Z,14.90
2022-09-04T03:48:39.663Z,18.77
2022-09-04T03:51:25.840Z,16.75
2022-09-04T03:54:09.044Z,14.80
2022-09-04T03:56:55.614Z,17.05
2022-09-04T03:59:41.260Z,15.45
2022-09-04T04:02:20.314Z,16.13
2022-09-04T04:05:27.768Z,16.52
2022-09-04T04:08:27.941Z,18.73
2022-09-04T04:11:05.401Z,13.73
2022-09-04T04:14:08.262Z,16.17
2022-09-04T04:16:56.366Z,17.90
2022-09-04T04:19:48.400Z,15.10
2022-09-04T04:22:35.380Z,16.92
2022-09-04T04:25:35.873Z,14.48
2022-09-04T04:28:20.235Z,13.95
2022-09-04T04:30:52.651Z,11.65
2022-09-04T04:33:42.598Z,11.85
2022-09-04T04:36:22.773Z,19.65
2022-09-04T04:39:09.970Z,16.25
2022-09-04T04:42:07.892Z,13.45
2022-09-04T04:45:18.418Z,16.08
2022-09-04T04:48:11.493Z,13.25
2022-09-04T04:53:18.062Z,13.52
2022-09-04T04:55:51.731Z,16.58
2022-09-04T04:58:30.926Z,19.55
2022-09-04T05:01:07.312Z,12.05
2022-09-04T05:03:47.845Z,9.45
2022-09-04T05:06:21.956Z,8.18
2022-09-04T05:08:59.084Z,10.07
2022-09-04T05:11:40.182Z,8.75
2022-09-04T05:14:26.447Z,9.10
2022-09-04T05:17:00.875Z,13.05
2022-09-04T05:19:33.851Z,11.50
2022-09-04T05:22:10.926Z,11.07
2022-09-04T05:24:50.302Z,9.70
2022-09-04T05:27:47.294Z,11.52
2022-09-04T05:30:22.735Z,10.02
2022-09-04T05:32:59.212Z,11.02
2022-09-04T05:35:38.327Z,10.98
2022-09-04T05:38:12.928Z,7.45
2022-09-04T05:40:59.131Z,10.68
2022-09-04T05:43:38.154Z,12.70
2022-09-04T05:46:18.375Z,8.63
2022-09-04T05:48:59.291Z,10.85
2022-09-04T05:52:01.935Z,11.93
2022-09-04T05:55:05.456Z,12.73
2022-09-04T05:57:49.455Z,8.40
2022-09-04T06:00:19.338Z,17.98
2022-09-04T06:03:27.832Z,8.32
2022-09-04T06:06:15.419Z,11.05
2022-09-04T06:09:03.469Z,9.05
2022-09-04T06:11:42.348Z,7.53
2022-09-04T06:14:34.594Z,11.70
2022-09-04T06:17:17.297Z,14.57
2022-09-04T06:20:04.216Z,10.15
2022-09-04T06:23:02.787Z,10.90
2022-09-04T06:25:58.126Z,10.85
2022-09-04T06:28:51.370Z,8.48
2022-09-04T06:31:46.744Z,17.15
2022-09-04T06:34:24.556Z,8.55
2022-09-04T06:37:14.625Z,11.73
2022-09-04T06:39:57.440Z,10.77
2022-09-04T06:42:39.233Z,7.20
2022-09-04T06:45:20.714Z,14.65
2022-09-04T06:48:06.422Z,11.15
2022-09-04T06:50:47.338Z,10.07
2022-09-04T06:53:31.130Z,10.38
2022-09-04T06:56:14.823Z,7.65
2022-09-04T06:59:09.447Z,12.35
2022-09-04T07:01:47.650Z,9.05
2022-09-04T07:04:28.547Z,9.50
2022-09-04T07:07:11.526Z,8.05
2022-09-04T07:09:47.992Z,9.02
2022-09-04T07:12:34.211Z,7.30
2022-09-04T07:15:36.976Z,11.40
2022-09-04T07:18:17.580Z,8.18
2022-09-04T07:21:03.185Z,10.57
2022-09-04T07:23:45.184Z,11.50
2022-09-04T07:26:28.642Z,6.82
2022-09-04T07:29:10.600Z,12.20
2022-09-04T07:31:44.425Z,6.73
2022-09-04T07:34:20.167Z,12.45
2022-09-04T07:36:56.502Z,11.10
2022-09-04T07:39:33.921Z,8.98
2022-09-04T07:42:12.894Z,7.78
2022-09-04T07:44:49.042Z,13.45
2022-09-04T07:47:23.151Z,11.60
2022-09-04T07:50:04.866Z,9.40
2022-09-04T07:52:55.300Z,7.45
2022-09-04T07:55:37.272Z,7.13
2022-09-04T07:58:44.363Z,7.55
2022-09-04T08:01:40.101Z,9.45
2022-09-04T08:04:27.091Z,9.38
2022-09-04T08:07:00.042Z,13.75
2022-09-04T08:10:06.309Z,7.35
2022-09-04T08:12:58.044Z,12.80
2022-09-04T08:15:40.967Z,10.07
2022-09-04T08:18:30.476Z,7.15
2022-09-04T08:21:13.270Z,9.57
2022-09-04T08:26:40.998Z,8.35
2022-09-04T08:29:24.682Z,7.40
2022-09-04T08:32:13.960Z,8.38
2022-09-04T08:35:06.756Z,10.50
2022-09-04T08:37:48.572Z,9.27
2022-09-04T08:40:41.536Z,7.53
2022-09-04T08:43:30.104Z,7.10
2022-09-04T08:46:39.377Z,10.10
2022-09-04T08:49:40.251Z,8.68
2022-09-04T08:52:44.523Z,8.40
2022-09-04T08:55:38.597Z,10.52
2022-09-04T08:58:37.439Z,8.10
2022-09-04T09:01:35.765Z,10.02
2022-09-04T09:04:51.254Z,7.00
2022-09-04T09:08:01.135Z,9.45
2022-09-04T09:11:00.427Z,9.48
2022-09-04T09:14:12.404Z,11.73
2022-09-04T09:16:55.170Z,10.68
2022-09-04T09:19:44.620Z,9.93
2022-09-04T09:22:30.405Z,7.75
2022-09-04T09:25:20.886Z,8.95
2022-09-04T09:28:37.485Z,9.88
2022-09-04T09:31:53.278Z,8.40
2022-09-04T09:34:48.466Z,8.00
2022-09-04T09:37:43.609Z,7.68
2022-09-04T09:40:31.914Z,8.13
2022-09-04T09:43:42.256Z,13.57
2022-09-04T09:46:32.532Z,9.68
2022-09-04T09:49:37.781Z,7.00
2022-09-04T09:52:34.050Z,8.10
2022-09-04T09:55:41.844Z,8.25
2022-09-04T09:58:25.719Z,5.65
2022-09-04T10:01:09.500Z,8.80
2022-09-04T10:04:10.827Z,6.75
2022-09-04T10:07:20.105Z,10.80
2022-09-04T10:10:20.768Z,6.97
2022-09-04T10:13:22.085Z,12.80
2022-09-04T10:16:19.349Z,7.38
2022-09-04T10:19:17.984Z,9.60
2022-09-04T10:22:22.876Z,9.48
2022-09-04T10:25:16.873Z,7.68
2022-09-04T10:28:20.373Z,9.35
2022-09-04T10:31:17.378Z,8.15
2022-09-04T10:33:58.202Z,8.85
2022-09-04T10:36:38.371Z,9.55
2022-09-04T10:39:38.344Z,7.60
2022-09-04T10:42:17.819Z,12.13
2022-09-04T10:44:58.870Z,7.75
2022-09-04T10:47:53.818Z,13.63
2022-09-04T10:50:36.866Z,10.00
2022-09-04T10:53:31.418Z,6.95
2022-09-04T10:56:22.235Z,12.10
2022-09-04T10:59:21.400Z,6.75
2022-09-04T11:02:12.690Z,8.18
2022-09-04T11:05:12.777Z,9.70
2022-09-04T11:08:00.267Z,12.85
2022-09-04T11:10:37.755Z,8.55
2022-09-04T11:13:51.427Z,9.98
2022-09-04T11:16:35.292Z,6.70
2022-09-04T11:19:32.384Z,8.13
2022-09-04T11:22:47.189Z,13.35
2022-09-04T11:25:49.455Z,10.07
2022-09-04T11:28:51.841Z,9.60
2022-09-04T11:31:35.446Z,7.85
2022-09-04T11:34:35.238Z,8.85
2022-09-04T11:37:35.283Z,7.50
2022-09-04T11:40:36.043Z,10.65
2022-09-04T11:43:23.327Z,10.55
2022-09-04T11:46:18.052Z,7.35
2022-09-04T11:49:21.696Z,9.13
2022-09-04T11:52:14.825Z,10.10
2022-09-04T11:55:06.756Z,8.80
2022-09-04T11:57:49.178Z,14.73
2022-09-04T12:00:18.291Z,9.45
2022-09-04T12:03:19.298Z,8.10
2022-09-04T12:06:04.624Z,10.48
2022-09-04T12:08:49.137Z,9.52
2022-09-04T12:11:42.895Z,12.00
2022-09-04T12:14:24.861Z,11.07
2022-09-04T12:17:37.559Z,6.40
2022-09-04T12:20:35.329Z,10.63
2022-09-04T12:23:32.625Z,6.95
2022-09-04T12:26:51.205Z,11.20
2022-09-04T12:29:52.958Z,7.40
2022-09-04T12:32:48.451Z,11.93
2022-09-04T12:35:54.622Z,11.68
2022-09-04T12:38:52.772Z,10.48
2022-09-04T12:41:25.928Z,8.95
2022-09-04T12:44:05.980Z,8.85
2022-09-04T12:46:52.302Z,7.75
2022-09-04T12:49:35.603Z,8.98
2022-09-04T12:52:17.585Z,11.38
2022-09-04T12:54:55.945Z,7.03
2022-09-04T12:57:37.156Z,7.13
2022-09-04T13:00:10.889Z,5.65
2022-09-04T13:02:53.574Z,14.25
2022-09-04T13:05:53.027Z,10.00
2022-09-04T13:08:33.515Z,10.10
2022-09-04T13:11:20.118Z,9.00
2022-09-04T13:13:59.781Z,7.50
2022-09-04T13:16:35.288Z,6.93
2022-09-04T13:19:12.771Z,7.63
2022-09-04T13:22:05.666Z,13.85
2022-09-04T13:24:51.314Z,7.18
2022-09-04T13:27:34.859Z,10.18
2022-09-04T13:30:08.680Z,8.68
2022-09-04T13:32:52.366Z,7.72
2022-09-04T13:35:36.459Z,9.50
2022-09-04T13:38:23.301Z,7.75
2022-09-04T13:41:12.584Z,6.38
2022-09-04T13:44:11.910Z,6.68
2022-09-04T13:46:45.361Z,6.95
2022-09-04T13:49:17.519Z,8.32
2022-09-04T13:51:51.804Z,15.18
2022-09-04T13:54:25.878Z,6.20
2022-09-04T13:56:59.854Z,7.32
2022-09-04T13:59:28.801Z,6.07
2022-09-04T14:02:04.736Z,8.63
2022-09-04T14:04:40.168Z,7.20
2022-09-04T14:07:14.775Z,11.15
2022-09-04T14:09:46.529Z,9.25
2022-09-04T14:12:36.888Z,6.78
2022-09-04T14:15:31.485Z,6.82
2022-09-04T14:18:14.238Z,8.35
2022-09-04T14:20:58.207Z,7.30
2022-09-04T14:23:43.969Z,8.00
2022-09-04T14:26:24.968Z,7.32
2022-09-04T14:28:58.515Z,8.48
2022-09-04T14:31:35.356Z,7.47
2022-09-04T14:34:19.209Z,6.68
2022-09-04T14:36:57.303Z,7.30
2022-09-04T14:39:33.304Z,6.53
2022-09-04T14:42:36.276Z,8.90
2022-09-04T14:45:19.386Z,8.73
2022-09-04T14:47:53.909Z,6.97
2022-09-04T14:50:28.436Z,9.10
2022-09-04T14:53:02.094Z,7.68
2022-09-04T14:55:33.339Z,7.78
2022-09-04T14:58:10.678Z,7.57
2022-09-04T15:01:00.175Z,10.15
2022-09-04T15:03:32.051Z,9.10
2022-09-04T15:06:08.449Z,10.70
2022-09-04T15:08:40.810Z,7.03
2022-09-04T15:11:13.339Z,7.80
2022-09-04T15:16:29.556Z,9.85
2022-09-04T15:19:03.734Z,11.18
2022-09-04T15:21:39.987Z,6.93
2022-09-04T15:24:17.872Z,7.88
2022-09-04T15:26:55.757Z,10.55
2022-09-04T15:29:29.716Z,13.77
2022-09-04T15:32:02.075Z,7.28
2022-09-04T15:37:12.346Z,7.43
2022-09-04T15:39:50.626Z,6.80
2022-09-04T15:42:36.677Z,6.97
2022-09-04T15:45:16.907Z,12.32
2022-09-04T15:48:03.438Z,7.07
2022-09-04T15:50:35.533Z,8.40
2022-09-04T15:53:15.373Z,6.20
2022-09-04T15:55:48.546Z,8.30
2022-09-04T15:58:21.380Z,8.05
2022-09-04T16:01:12.234Z,6.32
2022-09-04T16:03:56.107Z,8.52
2022-09-04T16:06:30.242Z,10.75
2022-09-04T16:09:03.304Z,7.53
2022-09-04T16:11:38.627Z,7.82
2022-09-04T16:14:12.012Z,8.00
2022-09-04T16:16:46.756Z,13.75
2022-09-04T16:19:23.314Z,8.75
2022-09-04T16:22:00.200Z,8.40
2022-09-04T16:24:35.112Z,7.55
2022-09-04T16:27:10.172Z,8.57
2022-09-04T16:29:42.409Z,10.05
2022-09-04T16:32:13.868Z,9.60
2022-09-04T16:34:50.616Z,8.50
2022-09-04T16:37:26.989Z,9.65
2022-09-04T16:40:09.691Z,6.70
2022-09-04T16:42:45.546Z,16.08
2022-09-04T16:45:18.197Z,9.07
2022-09-04T16:47:54.660Z,7.60
2022-09-04T16:50:29.249Z,8.75
2022-09-04T16:53:13.299Z,8.32
2022-09-04T16:55:48.901Z,8.30
2022-09-04T16:58:35.610Z,8.38
2022-09-04T17:01:15.745Z,10.85
2022-09-04T17:04:13.241Z,8.98
2022-09-04T17:06:54.422Z,7.65
2022-09-04T17:09:29.216Z,11.73
2022-09-04T17:12:03.929Z,11.23
2022-09-04T17:14:38.191Z,7.78
2022-09-04T17:17:12.483Z,12.57
2022-09-04T17:20:05.395Z,8.52
2022-09-04T17:28:26.232Z,10.65
2022-09-04T17:28:58.468Z,8.82
2022-09-04T17:29:29.601Z,12.48
2022-09-04T17:31:54.430Z,6.65
2022-09-04T17:37:42.352Z,9.45
2022-09-04T17:40:06.290Z,9.85
2022-09-04T17:41:38.338Z,9.52
2022-09-04T17:43:37.342Z,9.75
2022-09-04T17:46:26.672Z,7.38
2022-09-04T17:48:57.498Z,7.53
2022-09-04T17:51:27.521Z,7.93
2022-09-04T17:54:00.043Z,8.35
2022-09-04T17:59:08.359Z,8.05
2022-09-04T18:01:44.506Z,9.38
2022-09-04T18:04:26.501Z,9.93
2022-09-04T18:07:56.867Z,9.10
2022-09-04T18:10:09.959Z,9.02
2022-09-04T18:12:45.857Z,7.95
2022-09-04T18:15:34.492Z,9.57
2022-09-04T18:18:14.232Z,8.27
2022-09-04T18:20:52.024Z,6.60
2022-09-04T18:23:53.438Z,11.77
2022-09-04T18:26:40.350Z,7.53
2022-09-04T18:31:12.704Z,8.38
2022-09-04T18:37:07.618Z,7.55
2022-09-04T18:37:22.076Z,8.43
2022-09-04T18:38:20.722Z,7.53
2022-09-04T18:46:15.088Z,14.25
2022-09-04T18:50:22.789Z,9.77
2022-09-04T18:50:46.761Z,12.63
2022-09-04T18:50:51.443Z,13.75
2022-09-04T18:52:22.631Z,11.38
2022-09-04T18:55:02.157Z,13.77
2022-09-04T18:57:35.302Z,15.05
2022-09-04T19:00:09.633Z,9.07
2022-09-04T19:02:53.987Z,9.52
2022-09-04T19:05:25.433Z,7.65
2022-09-04T19:07:59.485Z,9.15
2022-09-04T19:10:32.439Z,8.30
2022-09-04T19:13:10.476Z,6.57
2022-09-04T19:15:57.712Z,7.97
2022-09-04T19:18:45.636Z,12.25
2022-09-04T19:21:21.238Z,14.63
2022-09-04T19:23:59.760Z,7.70
2022-09-04T19:26:40.841Z,8.52
2022-09-04T19:29:15.579Z,9.65
2022-09-04T19:31:51.476Z,7.78
2022-09-04T19:34:29.130Z,6.82
2022-09-04T19:37:20.395Z,6.38
2022-09-04T19:44:22.909Z,7.77
2022-09-04T19:46:04.887Z,6.85
2022-09-04T19:46:12.082Z,11.88
2022-09-04T19:49:21.478Z,8.80
2022-09-04T19:53:34.659Z,11.73
2022-09-04T19:54:36.746Z,10.35
2022-09-04T19:57:33.384Z,14.95
2022-09-04T20:00:36.431Z,13.38
2022-09-04T20:03:02.269Z,13.05
2022-09-04T20:05:32.403Z,15.32
2022-09-04T20:08:07.627Z,8.32
2022-09-04T20:10:43.095Z,11.45
2022-09-04T20:13:21.586Z,8.30
2022-09-04T20:16:00.740Z,9.80
2022-09-04T20:18:34.368Z,7.82
2022-09-04T20:21:13.850Z,9.45
2022-09-04T20:23:47.423Z,11.52
2022-09-04T20:26:21.955Z,10.02
2022-09-04T20:29:14.094Z,15.20
2022-09-04T20:31:58.661Z,8.93
2022-09-04T20:34:32.983Z,11.82
2022-09-04T20:37:29.468Z,20.35
2022-09-04T20:40:12.865Z,10.18
2022-09-04T20:42:51.467Z,13.48
2022-09-04T20:48:45.647Z,19.13
2022-09-04T20:52:48.975Z,14.93
2022-09-04T20:52:50.479Z,14.68
2022-09-04T20:54:28.366Z,15.63
2022-09-04T21:01:29.032Z,15.50
2022-09-04T21:03:09.516Z,14.80
2022-09-04T21:03:19.608Z,20.48
2022-09-04T21:06:26.128Z,14.00
2022-09-04T21:09:04.031Z,10.18
2022-09-04T21:11:41.309Z,14.15
2022-09-04T21:14:16.213Z,10.20
2022-09-04T21:17:33.569Z,15.00
2022-09-04T21:20:36.192Z,13.90
2022-09-04T21:23:53.006Z,11.80
2022-09-04T21:26:49.901Z,8.63
2022-09-04T21:29:33.834Z,13.25
2022-09-04T21:32:23.319Z,14.93
2022-09-04T21:35:03.136Z,10.77
2022-09-04T21:37:41.910Z,9.85
2022-09-04T21:40:51.434Z,8.30
2022-09-04T21:44:02.594Z,10.00
2022-09-04T21:46:59.083Z,9.85
2022-09-04T21:49:57.072Z,11.88
2022-09-04T21:52:56.066Z,11.23
2022-09-04T22:00:06.096Z,16.15
2022-09-04T22:02:37.962Z,8.98
2022-09-04T22:02:42.421Z,9.25
2022-09-04T22:05:09.755Z,11.40
2022-09-04T22:10:21.634Z,13.82
2022-09-04T22:13:30.493Z,14.85
2022-09-04T22:13:51.413Z,15.60
2022-09-04T22:16:42.568Z,13.63
2022-09-04T22:19:38.886Z,21.83
2022-09-04T22:22:25.726Z,18.38
2022-09-04T22:25:28.527Z,11.60
2022-09-04T22:28:41.306Z,10.95
2022-09-04T22:31:32.633Z,16.90
2022-09-04T22:34:23.291Z,15.23
2022-09-04T22:37:16.261Z,17.58
2022-09-04T22:42:51.280Z,13.38
2022-09-04T22:46:08.397Z,21.48
2022-09-04T22:49:24.136Z,11.80
2022-09-04T22:52:20.167Z,14.00
2022-09-04T22:55:36.529Z,13.60
2022-09-04T22:58:20.601Z,11.77
2022-09-04T23:01:17.502Z,9.98
2022-09-04T23:04:02.116Z,9.70
2022-09-04T23:10:43.488Z,15.05
2022-09-04T23:13:52.403Z,17.38
2022-09-04T23:14:05.395Z,9.32
2022-09-04T23:16:28.245Z,7.72
2022-09-04T23:20:48.807Z,7.87
2022-09-04T23:26:33.208Z,9.57
2022-09-04T23:28:27.803Z,8.85
2022-09-04T23:31:19.835Z,9.50
2022-09-04T23:34:31.145Z,10.75
2022-09-04T23:37:21.001Z,10.82
2022-09-04T23:40:03.427Z,10.05
2022-09-04T23:43:07.725Z,9.75
2022-09-04T23:46:02.013Z,11.88
2022-09-04T23:48:49.736Z,12.02
2022-09-04T23:51:27.906Z,9.75
2022-09-04T23:54:25.320Z,8.20
2022-09-04T23:57:01.037Z,12.95
2022-09-04T23:59:45.350Z,9.95
